1995 ANNETTE (1994344S09112)


On this page: IBTrACS data - Map and Plots - Positions - Intensities - Original source data

Summary

Start Dec 10
End Dec 20
Basin SI
LMI 110 kt
Sources jtwc_sh
bom
neumann
In WMO? Yes
Previous storm 1995 ALBERTINE (SI)
Previous in basin 1995 ALBERTINE (SI)
Concurrent storms 1995 ANNETTE (SI)
1994 AXEL (WP)
1995 HSK0494 (SP)
1994 BOBBIE (WP)
Next in basin 1995 CHRISTELLE (SI)
Next storm 1994 AXEL (WP)

top of page IBTrACS Data: File Access

Image of storm

top of page Plots:

Map of storm track will not appear if FTP is down
Time series of cyclone Maximum Sustained Wind will not appear if FTP is down
Time series of cyclone Minimum Central Pressure will not appear if FTP is down

top of page Track Data:Position

jtwc_sh bom neumann
Date Lat Lon Lat Lon Lat Lon
1994-12-10 00:00:00 -9.0 112.0 -9.0 112.0
1994-12-10 06:00:00 -9.1 112.3 -9.1 112.3
1994-12-10 12:00:00 -9.2 112.6 -9.2 112.6
1994-12-10 18:00:00 -9.3 112.9 -9.3 112.9
1994-12-11 00:00:00 -9.4 113.2 -9.4 113.2
1994-12-11 06:00:00 -9.6 113.5 -9.6 113.5
1994-12-11 12:00:00 -9.8 113.7 -9.8 113.7
1994-12-11 18:00:00 -10.0 113.9 -10.0 113.9
1994-12-12 00:00:00 -10.2 114.1 -10.2 114.1
1994-12-12 06:00:00 -10.4 114.3 -10.4 114.3
1994-12-12 12:00:00 -10.6 114.5 -10.6 114.5
1994-12-12 18:00:00 -10.8 114.6 -10.8 114.6
1994-12-13 00:00:00 -11.0 114.7 -12.5 116.0 -11.0 114.7
1994-12-13 06:00:00 -11.2 114.8 -12.5 116.0 -11.2 114.8
1994-12-13 12:00:00 -11.4 114.9 -12.5 116.0 -11.4 114.9
1994-12-13 18:00:00 -11.6 115.0 -12.5 116.0 -11.6 115.0
1994-12-14 00:00:00 -11.8 115.1 -12.5 116.0 -11.8 115.1
1994-12-14 06:00:00 -12.0 115.2 -12.5 115.7 -12.0 115.2
1994-12-14 12:00:00 -12.2 115.2 -12.5 115.6 -12.2 115.2
1994-12-14 18:00:00 -12.4 115.3 -12.5 115.6 -12.4 115.3
1994-12-15 00:00:00 -12.5 115.3 -12.5 115.6 -12.5 115.3
1994-12-15 06:00:00 -12.6 115.4 -12.6 115.6 -12.6 115.4
1994-12-15 12:00:00 -12.8 115.4 -12.8 115.6 -12.8 115.4
1994-12-15 18:00:00 -13.0 115.5 -13.0 115.6 -13.0 115.5
1994-12-16 00:00:00 -13.3 115.7 -13.2 115.7 -13.3 115.7
jtwc_sh bom neumann
1994-12-16 06:00:00 -13.6 115.9 -13.5 115.9 -13.6 115.9
1994-12-16 12:00:00 -14.0 116.2 -14.0 116.2 -14.0 116.2
1994-12-16 18:00:00 -14.4 116.6 -14.4 116.7 -14.4 116.6
1994-12-17 00:00:00 -14.9 117.1 -15.0 117.4 -14.9 117.1
1994-12-17 06:00:00 -15.4 117.9 -15.7 118.1 -15.4 117.9
1994-12-17 12:00:00 -16.2 118.6 -16.3 118.7 -16.2 118.6
1994-12-17 18:00:00 -17.1 119.4 -17.0 119.6 -17.1 119.4
1994-12-18 00:00:00 -18.2 120.2 -18.1 120.2 -18.2 120.2
1994-12-18 06:00:00 -19.4 120.8 -19.2 120.6 -19.4 120.8
1994-12-18 12:00:00 -20.6 121.7 -20.4 121.3 -20.6 121.7
1994-12-18 18:00:00 -22.1 122.5 -21.9 122.2 -22.1 122.5
1994-12-19 00:00:00 -23.8 123.4 -23.3 123.0 -23.8 123.4
1994-12-19 06:00:00 -25.7 124.4 -24.8 123.8 -25.7 124.4
1994-12-19 12:00:00 -27.6 125.6 -25.4 124.9 -27.6 125.6
1994-12-19 18:00:00 -29.5 127.1 -28.8 126.8 -29.5 127.1
1994-12-20 00:00:00 -31.3 129.1 -31.3 129.2 -31.3 129.1
1994-12-20 06:00:00 -32.4 130.8

top of pageTrack Data:Intensity

jtwc_sh bom neumann
Date Wind Pres Wind Pres Wind Pres
1994-12-10 00:00:00 15. 15.
1994-12-10 06:00:00 15. 15.
1994-12-10 12:00:00 15. 15.
1994-12-10 18:00:00 15. 15.
1994-12-11 00:00:00 15. 15.
1994-12-11 06:00:00 15. 15.
1994-12-11 12:00:00 20. 20.
1994-12-11 18:00:00 20. 20.
1994-12-12 00:00:00 20. 20.
1994-12-12 06:00:00 20. 20.
1994-12-12 12:00:00 25. 25.
1994-12-12 18:00:00 25. 25.
1994-12-13 00:00:00 25. 1006. 25.
1994-12-13 06:00:00 25. 1006. 25.
1994-12-13 12:00:00 30. 21. 1004. 30.
1994-12-13 18:00:00 30. 21. 1004. 30.
1994-12-14 00:00:00 30. 23. 1002. 30.
1994-12-14 06:00:00 35. 27. 1000. 35.
1994-12-14 12:00:00 35. 29. 998. 35.
1994-12-14 18:00:00 35. 35. 994. 35.
1994-12-15 00:00:00 40. 47. 985. 40.
1994-12-15 06:00:00 45. 60. 975. 45.
1994-12-15 12:00:00 55. 60. 975. 55.
1994-12-15 18:00:00 65. 70. 965. 65.
1994-12-16 00:00:00 70. 80. 955. 70.
jtwc_sh bom neumann
1994-12-16 06:00:00 75. 89. 945. 75.
1994-12-16 12:00:00 80. 93. 940. 80.
1994-12-16 18:00:00 85. 84. 950. 85.
1994-12-17 00:00:00 85. 80. 955. 85.
1994-12-17 06:00:00 90. 80. 955. 90.
1994-12-17 12:00:00 90. 80. 955. 90.
1994-12-17 18:00:00 100. 93. 940. 100.
1994-12-18 00:00:00 110. 105. 925. 110.
1994-12-18 06:00:00 110. 101. 930. 110.
1994-12-18 12:00:00 70. 80. 955. 75.
1994-12-18 18:00:00 45. 41. 990. 55.
1994-12-19 00:00:00 35. 35. 995. 45.
1994-12-19 06:00:00 30. 35. 995. 35.
1994-12-19 12:00:00 25. 35. 995. 30.
1994-12-19 18:00:00 20. 35. 995. 30.
1994-12-20 00:00:00 20. 35. 995. 25.
1994-12-20 06:00:00 35. 995.

top of page Links to source data

Source Source file Format
jtwc_sh bsh031995.txt ATCF
bom IDCKMSTM0S.csv:Line=19327:ANNETTE CSV file (from Excel file)
neumann tracks.sh:Storm=1016:ANNETTE:BSH031995:JTWC&BM831 HURDAT